Time,TemperatureF,DewpointF,PressureIn,WindDirection,WindDirectionDegrees,WindSpeedMPH,WindSpeedGustMPH,Humidity,HourlyPrecipIn,Conditions,Clouds,dailyrainin,SoftwareType,DateUTC
2013-07-06 00:02:00,67.6,66.1,30.30,West,280,0.0,3.0,95,0.00,,,0.00,WeatherCatV1.15B25,2013-07-06 04:02:00,
2013-07-06 00:07:00,67.7,66.2,30.30,WNW,294,0.0,2.0,95,0.00,,,0.00,WeatherCatV1.15B25,2013-07-06 04:07:00,
2013-07-06 00:12:00,67.7,66.2,30.30,WNW,289,1.0,2.0,95,0.00,,,0.00,WeatherCatV1.15B25,2013-07-06 04:12:00,
2013-07-06 00:17:00,67.8,66.3,30.30,West,277,0.0,1.0,95,0.00,,,0.00,WeatherCatV1.15B25,2013-07-06 04:17:00,
2013-07-06 00:22:00,67.9,66.1,30.30,West,277,0.0,1.0,94,0.00,,,0.00,WeatherCatV1.15B25,2013-07-06 04:22:00,
2013-07-06 00:27:00,67.9,66.1,30.30,WNW,283,0.0,1.0,94,0.00,,,0.00,WeatherCatV1.15B25,2013-07-06 04:27:00,
2013-07-06 00:32:00,67.9,66.1,30.30,West,278,1.0,3.0,94,0.00,,,0.00,WeatherCatV1.15B25,2013-07-06 04:32:00,
2013-07-06 00:37:00,68.0,66.2,30.30,NW,311,1.0,2.0,94,0.00,,,0.00,WeatherCatV1.15B25,2013-07-06 04:37:00,
2013-07-06 00:42:00,68.0,66.2,30.30,NW,306,1.0,1.0,94,0.00,,,0.00,WeatherCatV1.15B25,2013-07-06 04:42:00,
2013-07-06 00:47:00,67.9,66.4,30.29,West,268,0.0,1.0,95,0.00,,,0.00,WeatherCatV1.15B25,2013-07-06 04:47:00,
2013-07-06 00:52:00,67.9,66.4,30.29,West,278,0.0,1.0,95,0.00,,,0.00,WeatherCatV1.15B25,2013-07-06 04:52:00,
2013-07-06 00:57:00,67.9,66.4,30.29,West,260,1.0,1.0,95,0.00,,,0.00,WeatherCatV1.15B25,2013-07-06 04:57:00,
2013-07-06 01:02:00,67.9,66.4,30.29,West,267,0.0,3.0,95,0.00,,,0.00,WeatherCatV1.15B25,2013-07-06 05:02:00,
2013-07-06 01:07:00,67.9,66.4,30.29,West,281,0.0,0.0,95,0.00,,,0.01,WeatherCatV1.15B25,2013-07-06 05:07:00,
2013-07-06 01:12:00,67.9,66.7,30.29,West,280,0.0,1.0,96,0.08,,,0.02,WeatherCatV1.15B25,2013-07-06 05:12:00,
2013-07-06 01:17:00,67.7,66.5,30.29,WNW,284,0.0,2.0,96,0.13,,,0.03,WeatherCatV1.15B25,2013-07-06 05:17:00,
2013-07-06 01:22:00,67.7,66.5,30.28,NW,305,1.0,4.0,96,0.14,,,0.04,WeatherCatV1.15B25,2013-07-06 05:22:00,
2013-07-06 01:27:00,67.6,66.4,30.28,WNW,287,0.0,1.0,96,0.19,,,0.06,WeatherCatV1.15B25,2013-07-06 05:27:00,
2013-07-06 01:32:00,67.6,66.4,30.28,West,277,0.0,2.0,96,0.12,,,0.07,WeatherCatV1.15B25,2013-07-06 05:32:00,
2013-07-06 01:43:00,67.5,66.6,30.28,WNW,282,0.0,1.0,97,0.74,,,0.21,WeatherCatV1.15B25,2013-07-06 05:43:00,
2013-07-06 01:48:00,67.4,66.5,30.28,WNW,282,0.0,0.0,97,0.75,,,0.28,WeatherCatV1.15B25,2013-07-06 05:48:00,
2013-07-06 01:53:00,67.4,66.5,30.28,North,9,0.0,0.0,97,0.34,,,0.32,WeatherCatV1.15B25,2013-07-06 05:53:00,
2013-07-06 01:58:00,67.3,66.4,30.28,NW,326,0.0,2.0,97,0.10,,,0.32,WeatherCatV1.15B25,2013-07-06 05:58:00,
2013-07-06 02:03:00,67.3,66.4,30.28,NW,326,0.0,0.0,97,0.47,,,0.34,WeatherCatV1.15B25,2013-07-06 06:03:00,
2013-07-06 02:08:00,67.3,66.7,30.28,NNW,336,0.0,1.0,98,2.73,,,0.40,WeatherCatV1.15B25,2013-07-06 06:08:00,
2013-07-06 02:20:00,67.3,66.7,30.28,NNE,13,0.0,1.0,98,0.22,,,0.00,WeatherCatV1.15B25,2013-07-06 06:20:00,
2013-07-06 02:23:00,67.3,66.7,30.28,West,264,1.0,2.0,98,1.97,,,0.59,WeatherCatV1.15B25,2013-07-06 06:23:00,
2013-07-06 02:25:00,67.3,66.7,30.29,WNW,301,1.0,0.0,98,1.57,,,0.00,WeatherCatV1.15B25,2013-07-06 06:25:00,
2013-07-06 02:30:00,67.3,66.7,30.28,WNW,282,1.0,1.0,98,0.67,,,0.00,WeatherCatV1.15B25,2013-07-06 06:30:00,
2013-07-06 02:35:00,67.3,66.7,30.28,WNW,299,1.0,2.0,98,1.28,,,0.00,WeatherCatV1.15B25,2013-07-06 06:35:00,
2013-07-06 02:40:00,67.3,66.7,30.28,NNW,334,0.0,2.0,98,0.48,,,0.00,WeatherCatV1.15B25,2013-07-06 06:40:00,
2013-07-06 02:45:00,67.3,66.7,30.28,North,2,0.0,1.0,98,0.12,,,0.00,WeatherCatV1.15B25,2013-07-06 06:45:00,
2013-07-06 02:50:00,67.2,66.6,30.28,WNW,297,1.0,1.0,98,0.06,,,0.00,WeatherCatV1.15B25,2013-07-06 06:50:00,
2013-07-06 02:55:00,67.3,66.7,30.28,WNW,282,1.0,2.0,98,0.04,,,0.00,WeatherCatV1.15B25,2013-07-06 06:55:00,
2013-07-06 03:00:00,67.3,66.7,30.28,West,275,0.0,1.0,98,0.30,,,0.00,WeatherCatV1.15B25,2013-07-06 07:00:00,
2013-07-06 03:05:00,67.3,66.7,30.28,West,271,1.0,2.0,98,0.33,,,0.00,WeatherCatV1.15B25,2013-07-06 07:05:00,
2013-07-06 03:10:00,67.2,66.6,30.28,NNE,16,2.0,4.0,98,0.14,,,0.00,WeatherCatV1.15B25,2013-07-06 07:10:00,
2013-07-06 03:15:00,67.2,66.6,30.28,NW,325,1.0,1.0,98,0.08,,,0.00,WeatherCatV1.15B25,2013-07-06 07:15:00,
2013-07-06 03:20:00,67.1,66.2,30.28,NW,324,1.0,2.0,97,0.05,,,0.00,WeatherCatV1.15B25,2013-07-06 07:20:00,
2013-07-06 03:25:00,67.0,66.1,30.28,NNE,19,1.0,4.0,97,0.88,,,0.00,WeatherCatV1.15B25,2013-07-06 07:25:00,
2013-07-06 03:30:00,66.8,65.9,30.27,North,355,2.0,3.0,97,0.52,,,0.00,WeatherCatV1.15B25,2013-07-06 07:30:00,
2013-07-06 03:35:00,66.7,65.8,30.27,WNW,303,1.0,2.0,97,0.21,,,0.00,WeatherCatV1.15B25,2013-07-06 07:35:00,
2013-07-06 03:48:00,66.6,65.7,30.27,West,281,1.0,2.0,97,0.08,,,0.00,WeatherCatV1.15B25,2013-07-06 07:48:00,
2013-07-06 03:53:00,66.3,65.4,30.27,WNW,290,0.0,3.0,97,0.00,,,0.95,WeatherCatV1.15B25,2013-07-06 07:53:00,
2013-07-06 03:58:00,66.3,65.4,30.27,NW,316,0.0,0.0,97,0.00,,,0.95,WeatherCatV1.15B25,2013-07-06 07:58:00,
2013-07-06 04:03:00,66.2,65.3,30.28,NW,321,0.0,3.0,97,0.00,,,0.95,WeatherCatV1.15B25,2013-07-06 08:03:00,
2013-07-06 04:08:00,66.1,65.2,30.28,North,5,3.0,3.0,97,0.00,,,0.95,WeatherCatV1.15B25,2013-07-06 08:08:00,
2013-07-06 04:13:00,66.0,65.1,30.28,West,273,1.0,3.0,97,0.00,,,0.95,WeatherCatV1.15B25,2013-07-06 08:13:00,
2013-07-06 04:18:00,65.9,65.0,30.27,ESE,103,1.0,6.0,97,0.00,,,0.95,WeatherCatV1.15B25,2013-07-06 08:18:00,
2013-07-06 04:23:00,65.9,65.0,30.27,NNE,22,2.0,3.0,97,0.00,,,0.95,WeatherCatV1.15B25,2013-07-06 08:23:00,
2013-07-06 04:28:00,65.8,64.9,30.28,North,355,0.0,4.0,97,0.00,,,0.95,WeatherCatV1.15B25,2013-07-06 08:28:00,
2013-07-06 04:33:00,65.7,64.8,30.28,ENE,63,1.0,5.0,97,0.00,,,0.95,WeatherCatV1.15B25,2013-07-06 08:33:00,
2013-07-06 04:38:00,65.6,64.4,30.27,NNE,22,3.0,7.0,96,0.00,,,0.95,WeatherCatV1.15B25,2013-07-06 08:38:00,
2013-07-06 04:43:00,65.5,64.3,30.27,ENE,68,2.0,3.0,96,0.00,,,0.95,WeatherCatV1.15B25,2013-07-06 08:43:00,
2013-07-06 04:48:00,65.5,64.3,30.27,ENE,57,2.0,2.0,96,0.00,,,0.95,WeatherCatV1.15B25,2013-07-06 08:48:00,
2013-07-06 04:53:00,65.4,64.2,30.27,North,11,1.0,2.0,96,0.00,,,0.95,WeatherCatV1.15B25,2013-07-06 08:53:00,
2013-07-06 04:58:00,65.4,64.2,30.27,North,11,0.0,5.0,96,0.00,,,0.95,WeatherCatV1.15B25,2013-07-06 08:58:00,
2013-07-06 05:03:00,65.4,64.2,30.27,NW,306,1.0,5.0,96,0.00,,,0.95,WeatherCatV1.15B25,2013-07-06 09:03:00,
2013-07-06 05:08:00,65.5,64.3,30.27,NE,39,3.0,4.0,96,0.00,,,0.95,WeatherCatV1.15B25,2013-07-06 09:08:00,
2013-07-06 05:13:00,65.5,64.3,30.27,NE,34,5.0,5.0,96,0.00,,,0.95,WeatherCatV1.15B25,2013-07-06 09:13:00,
2013-07-06 05:18:00,65.6,64.4,30.27,North,0,0.0,3.0,96,0.00,,,0.95,WeatherCatV1.15B25,2013-07-06 09:18:00,
2013-07-06 05:23:00,65.6,64.4,30.27,NE,49,0.0,5.0,96,0.00,,,0.95,WeatherCatV1.15B25,2013-07-06 09:23:00,
2013-07-06 05:28:00,65.6,64.4,30.27,SW,215,0.0,0.0,96,0.00,,,0.95,WeatherCatV1.15B25,2013-07-06 09:28:00,
2013-07-06 05:33:00,65.6,64.4,30.27,West,270,0.0,3.0,96,0.00,,,0.95,WeatherCatV1.15B25,2013-07-06 09:33:00,
2013-07-06 05:38:00,65.6,64.7,30.28,West,269,0.0,1.0,97,0.00,,,0.95,WeatherCatV1.15B25,2013-07-06 09:38:00,
2013-07-06 05:43:00,65.6,64.7,30.27,West,265,0.0,4.0,97,0.00,,,0.95,WeatherCatV1.15B25,2013-07-06 09:43:00,
2013-07-06 05:48:00,65.6,64.7,30.27,North,355,0.0,3.0,97,0.00,,,0.95,WeatherCatV1.15B25,2013-07-06 09:48:00,
2013-07-06 05:53:00,65.6,64.7,30.27,North,355,0.0,0.0,97,0.00,,,0.95,WeatherCatV1.15B25,2013-07-06 09:53:00,
2013-07-06 05:58:00,65.6,64.7,30.28,North,355,0.0,1.0,97,0.00,,,0.95,WeatherCatV1.15B25,2013-07-06 09:58:00,
2013-07-06 06:03:00,65.6,64.7,30.28,North,355,0.0,0.0,97,0.00,,,0.95,WeatherCatV1.15B25,2013-07-06 10:03:00,
2013-07-06 06:08:00,65.7,64.8,30.28,West,273,0.0,1.0,97,0.00,,,0.95,WeatherCatV1.15B25,2013-07-06 10:08:00,
2013-07-06 06:13:00,65.7,64.8,30.28,WNW,299,0.0,1.0,97,0.00,,,0.95,WeatherCatV1.15B25,2013-07-06 10:13:00,
2013-07-06 06:18:00,65.8,65.2,30.28,NW,306,0.0,1.0,98,0.00,,,0.95,WeatherCatV1.15B25,2013-07-06 10:18:00,
2013-07-06 06:23:00,65.8,65.2,30.28,NW,306,0.0,0.0,98,0.00,,,0.95,WeatherCatV1.15B25,2013-07-06 10:23:00,
2013-07-06 06:28:00,65.8,65.2,30.28,NW,306,0.0,0.0,98,0.00,,,0.95,WeatherCatV1.15B25,2013-07-06 10:28:00,
2013-07-06 06:33:00,65.9,65.3,30.28,North,355,0.0,1.0,98,0.00,,,0.95,WeatherCatV1.15B25,2013-07-06 10:33:00,
2013-07-06 06:38:00,66.0,65.4,30.28,NNW,328,0.0,2.0,98,0.00,,,0.95,WeatherCatV1.15B25,2013-07-06 10:38:00,
2013-07-06 06:43:00,66.0,65.4,30.28,NNW,334,0.0,1.0,98,0.00,,,0.96,WeatherCatV1.15B25,2013-07-06 10:43:00,
2013-07-06 06:48:00,66.1,65.5,30.28,NNW,334,0.0,1.0,98,0.00,,,0.96,WeatherCatV1.15B25,2013-07-06 10:48:00,
2013-07-06 06:53:00,66.2,65.6,30.28,NNW,333,1.0,2.0,98,0.00,,,0.96,WeatherCatV1.15B25,2013-07-06 10:53:00,
2013-07-06 06:58:00,66.2,65.6,30.28,WNW,290,1.0,2.0,98,0.00,,,0.96,WeatherCatV1.15B25,2013-07-06 10:58:00,
2013-07-06 07:03:00,66.3,65.7,30.28,NW,310,2.0,3.0,98,0.00,,,0.96,WeatherCatV1.15B25,2013-07-06 11:03:00,
2013-07-06 07:08:00,66.3,65.7,30.28,NW,311,1.0,5.0,98,0.00,,,0.96,WeatherCatV1.15B25,2013-07-06 11:08:00,
2013-07-06 07:13:00,66.5,65.9,30.28,NW,307,1.0,4.0,98,0.00,,,0.96,WeatherCatV1.15B25,2013-07-06 11:13:00,
2013-07-06 07:18:00,66.6,66.0,30.28,WNW,303,0.0,0.0,98,0.00,,,0.96,WeatherCatV1.15B25,2013-07-06 11:18:00,
2013-07-06 07:23:00,66.7,66.1,30.29,West,280,2.0,2.0,98,0.00,,,0.96,WeatherCatV1.15B25,2013-07-06 11:23:00,
2013-07-06 07:28:00,66.8,66.2,30.29,West,260,3.0,7.0,98,0.00,,,0.96,WeatherCatV1.15B25,2013-07-06 11:28:00,
2013-07-06 07:33:00,66.8,66.2,30.29,WSW,239,1.0,3.0,98,0.00,,,0.96,WeatherCatV1.15B25,2013-07-06 11:33:00,
2013-07-06 07:38:00,66.9,66.0,30.29,WSW,244,2.0,8.0,97,0.00,,,0.96,WeatherCatV1.15B25,2013-07-06 11:38:00,
2013-07-06 07:43:00,67.0,66.1,30.29,WSW,257,4.0,7.0,97,0.00,,,0.96,WeatherCatV1.15B25,2013-07-06 11:43:00,
2013-07-06 07:48:00,67.1,66.2,30.29,West,271,4.0,5.0,97,0.00,,,0.96,WeatherCatV1.15B25,2013-07-06 11:48:00,
2013-07-06 07:53:00,67.2,66.3,30.29,NNW,344,3.0,6.0,97,0.00,,,0.96,WeatherCatV1.15B25,2013-07-06 11:53:00,
2013-07-06 07:58:00,67.3,66.1,30.29,NW,314,3.0,4.0,96,0.00,,,0.96,WeatherCatV1.15B25,2013-07-06 11:58:00,
2013-07-06 08:03:00,67.3,66.1,30.30,North,355,0.0,5.0,96,0.00,,,0.96,WeatherCatV1.15B25,2013-07-06 12:03:00,
2013-07-06 08:08:00,67.4,66.5,30.30,NW,307,0.0,3.0,97,0.00,,,0.96,WeatherCatV1.15B25,2013-07-06 12:08:00,
2013-07-06 08:13:00,67.4,66.5,30.30,West,269,3.0,4.0,97,0.00,,,0.96,WeatherCatV1.15B25,2013-07-06 12:13:00,
2013-07-06 08:18:00,67.4,66.5,30.30,NW,315,2.0,3.0,97,0.00,,,0.96,WeatherCatV1.15B25,2013-07-06 12:18:00,
2013-07-06 08:23:00,67.4,66.2,30.30,NW,316,0.0,3.0,96,0.00,,,0.96,WeatherCatV1.15B25,2013-07-06 12:23:00,
2013-07-06 08:28:00,67.5,66.3,30.30,SW,234,0.0,4.0,96,0.00,,,0.96,WeatherCatV1.15B25,2013-07-06 12:28:00,
2013-07-06 08:38:00,68.0,66.8,30.30,NE,56,3.0,5.0,96,0.00,,,0.96,WeatherCatV1.15B25,2013-07-06 12:38:00,
2013-07-06 08:43:00,68.3,66.8,30.30,WNW,287,0.0,6.0,95,0.00,,,0.96,WeatherCatV1.15B25,2013-07-06 12:43:00,
2013-07-06 08:48:00,68.3,66.8,30.31,WSW,244,3.0,8.0,95,0.00,,,0.96,WeatherCatV1.15B25,2013-07-06 12:48:00,
2013-07-06 08:53:00,68.3,66.5,30.31,NNW,343,1.0,9.0,94,0.00,,,0.96,WeatherCatV1.15B25,2013-07-06 12:53:00,
2013-07-06 08:58:00,68.2,66.4,30.31,NNW,328,0.0,7.0,94,0.00,,,0.96,WeatherCatV1.15B25,2013-07-06 12:58:00,
2013-07-06 09:03:00,68.1,66.3,30.31,WNW,296,1.0,9.0,94,0.00,,,0.97,WeatherCatV1.15B25,2013-07-06 13:03:00,
2013-07-06 09:08:00,67.8,66.3,30.31,WNW,296,3.0,5.0,95,0.00,,,0.97,WeatherCatV1.15B25,2013-07-06 13:08:00,
2013-07-06 09:13:00,68.1,66.6,30.31,WSW,250,4.0,8.0,95,0.00,,,0.97,WeatherCatV1.15B25,2013-07-06 13:13:00,
2013-07-06 09:18:00,68.2,66.7,30.31,SW,230,4.0,7.0,95,0.00,,,0.97,WeatherCatV1.15B25,2013-07-06 13:18:00,
2013-07-06 09:23:00,68.5,67.0,30.31,WSW,251,0.0,7.0,95,0.00,,,0.97,WeatherCatV1.15B25,2013-07-06 13:23:00,
2013-07-06 09:28:00,68.9,67.4,30.31,NW,319,1.0,6.0,95,0.00,,,0.97,WeatherCatV1.15B25,2013-07-06 13:28:00,
2013-07-06 09:33:00,69.0,66.9,30.31,WSW,242,0.0,8.0,93,0.00,,,0.97,WeatherCatV1.15B25,2013-07-06 13:33:00,
2013-07-06 09:38:00,69.2,67.4,30.30,NW,324,1.0,4.0,94,0.00,,,0.97,WeatherCatV1.15B25,2013-07-06 13:38:00,
2013-07-06 09:43:00,69.4,67.3,30.31,WSW,244,0.0,7.0,93,0.00,,,0.97,WeatherCatV1.15B25,2013-07-06 13:43:00,
2013-07-06 09:48:00,69.8,67.4,30.30,SW,230,2.0,8.0,92,0.00,,,0.97,WeatherCatV1.15B25,2013-07-06 13:48:00,
2013-07-06 09:53:00,69.9,66.8,30.31,WSW,241,6.0,6.0,90,0.00,,,0.97,WeatherCatV1.15B25,2013-07-06 13:53:00,
2013-07-06 09:58:00,69.9,67.1,30.31,West,271,2.0,5.0,91,0.00,,,0.97,WeatherCatV1.15B25,2013-07-06 13:58:00,
2013-07-06 10:03:00,70.4,67.3,30.30,SW,222,6.0,7.0,90,0.00,,,0.97,WeatherCatV1.15B25,2013-07-06 14:03:00,
2013-07-06 10:08:00,70.9,67.8,30.30,West,260,2.0,6.0,90,0.00,,,0.97,WeatherCatV1.15B25,2013-07-06 14:08:00,
2013-07-06 10:13:00,71.2,67.5,30.30,WSW,257,2.0,10.0,88,0.00,,,0.97,WeatherCatV1.15B25,2013-07-06 14:13:00,
2013-07-06 10:18:00,71.3,67.2,30.30,NE,38,1.0,7.0,87,0.00,,,0.97,WeatherCatV1.15B25,2013-07-06 14:18:00,
2013-07-06 10:23:00,71.4,67.7,30.30,SW,217,2.0,6.0,88,0.00,,,0.97,WeatherCatV1.15B25,2013-07-06 14:23:00,
2013-07-06 10:28:00,71.5,67.4,30.30,NW,323,1.0,2.0,87,0.00,,,0.97,WeatherCatV1.15B25,2013-07-06 14:28:00,
2013-07-06 10:33:00,71.5,67.1,30.30,WNW,302,2.0,12.0,86,0.00,,,0.97,WeatherCatV1.15B25,2013-07-06 14:33:00,
2013-07-06 10:38:00,71.6,67.8,30.30,SW,234,0.0,4.0,88,0.00,,,0.97,WeatherCatV1.15B25,2013-07-06 14:38:00,
2013-07-06 10:43:00,71.5,66.7,30.30,WSW,254,5.0,6.0,85,0.00,,,0.97,WeatherCatV1.15B25,2013-07-06 14:43:00,
2013-07-06 10:48:00,71.4,67.3,30.31,WSW,252,4.0,4.0,87,0.00,,,0.97,WeatherCatV1.15B25,2013-07-06 14:48:00,
2013-07-06 10:53:00,71.3,67.6,30.30,SW,236,0.0,6.0,88,0.00,,,0.97,WeatherCatV1.15B25,2013-07-06 14:53:00,
2013-07-06 10:58:00,71.2,67.1,30.31,SW,232,0.0,2.0,87,0.00,,,0.97,WeatherCatV1.15B25,2013-07-06 14:58:00,
2013-07-06 11:03:00,71.1,67.4,30.31,SSE,160,0.0,4.0,88,0.00,,,0.97,WeatherCatV1.15B25,2013-07-06 15:03:00,
2013-07-06 11:08:00,71.1,67.0,30.31,WSW,245,2.0,2.0,87,0.00,,,0.97,WeatherCatV1.15B25,2013-07-06 15:08:00,
2013-07-06 11:13:00,71.0,67.3,30.31,West,259,1.0,8.0,88,0.00,,,0.97,WeatherCatV1.15B25,2013-07-06 15:13:00,
2013-07-06 11:18:00,71.0,67.6,30.31,SW,234,0.0,3.0,89,0.00,,,0.97,WeatherCatV1.15B25,2013-07-06 15:18:00,
2013-07-06 11:23:00,71.4,68.0,30.30,WSW,240,0.0,3.0,89,0.00,,,0.97,WeatherCatV1.15B25,2013-07-06 15:23:00,
2013-07-06 11:28:00,72.1,68.3,30.31,ENE,74,0.0,5.0,88,0.00,,,0.97,WeatherCatV1.15B25,2013-07-06 15:28:00,
2013-07-06 11:33:00,72.7,68.3,30.31,North,350,1.0,3.0,86,0.00,,,0.97,WeatherCatV1.15B25,2013-07-06 15:33:00,
2013-07-06 11:38:00,73.3,68.8,30.30,WSW,248,1.0,7.0,86,0.00,,,0.97,WeatherCatV1.15B25,2013-07-06 15:38:00,
2013-07-06 11:43:00,73.6,68.5,30.30,WNW,296,0.0,4.0,84,0.00,,,0.97,WeatherCatV1.15B25,2013-07-06 15:43:00,
2013-07-06 11:48:00,74.1,68.9,30.30,NE,53,0.0,7.0,84,0.00,,,0.97,WeatherCatV1.15B25,2013-07-06 15:48:00,
2013-07-06 11:53:00,74.3,68.1,30.30,West,273,3.0,3.0,81,0.00,,,0.97,WeatherCatV1.15B25,2013-07-06 15:53:00,
2013-07-06 12:03:00,74.0,67.8,30.30,West,267,3.0,9.0,81,0.00,,,0.97,WeatherCatV1.15B25,2013-07-06 16:03:00,
2013-07-06 12:08:00,74.1,67.9,30.30,WSW,257,0.0,2.0,81,0.00,,,0.97,WeatherCatV1.15B25,2013-07-06 16:08:00,
2013-07-06 12:18:00,74.3,67.4,30.30,NNW,327,2.0,7.0,79,0.00,,,0.97,WeatherCatV1.15B25,2013-07-06 16:18:00,
2013-07-06 12:23:00,74.4,67.4,30.30,East,88,0.0,2.0,79,0.00,,,0.97,WeatherCatV1.15B25,2013-07-06 16:23:00,
2013-07-06 12:48:00,75.1,67.4,30.29,NW,304,3.0,10.0,77,0.00,,,0.97,WeatherCatV1.15B25,2013-07-06 16:48:00,
2013-07-06 12:53:00,75.3,67.9,30.29,WSW,239,4.0,4.0,78,0.00,,,0.97,WeatherCatV1.15B25,2013-07-06 16:53:00,
2013-07-06 12:58:00,75.7,69.1,30.29,SSW,207,1.0,2.0,80,0.00,,,0.97,WeatherCatV1.15B25,2013-07-06 16:58:00,
2013-07-06 13:13:00,75.6,67.5,30.29,WNW,292,1.0,8.0,76,0.00,,,0.97,WeatherCatV1.15B25,2013-07-06 17:13:00,
2013-07-06 13:18:00,75.6,67.5,30.29,West,278,1.0,7.0,76,0.00,,,0.97,WeatherCatV1.15B25,2013-07-06 17:18:00,
2013-07-06 13:23:00,75.7,68.0,30.28,WSW,245,5.0,7.0,77,0.00,,,0.97,WeatherCatV1.15B25,2013-07-06 17:23:00,
2013-07-06 13:33:00,75.7,67.2,30.28,WSW,248,9.0,9.0,75,0.00,,,0.97,WeatherCatV1.15B25,2013-07-06 17:33:00,
2013-07-06 13:38:00,75.8,68.1,30.28,WNW,291,1.0,2.0,77,0.00,,,0.97,WeatherCatV1.15B25,2013-07-06 17:38:00,
2013-07-06 13:48:00,76.0,67.5,30.28,WSW,255,4.0,9.0,75,0.00,,,0.97,WeatherCatV1.15B25,2013-07-06 17:48:00,
2013-07-06 13:53:00,75.9,67.4,30.28,WNW,288,0.0,3.0,75,0.00,,,0.97,WeatherCatV1.15B25,2013-07-06 17:53:00,
2013-07-06 14:03:00,76.2,67.7,30.27,SE,140,0.0,2.0,75,0.00,,,0.97,WeatherCatV1.15B25,2013-07-06 18:03:00,
2013-07-06 14:08:00,76.7,68.5,30.27,WNW,292,0.0,6.0,76,0.00,,,0.97,WeatherCatV1.15B25,2013-07-06 18:08:00,
2013-07-06 14:18:00,77.5,68.5,30.26,West,271,1.0,3.0,74,0.00,,,0.97,WeatherCatV1.15B25,2013-07-06 18:18:00,
2013-07-06 14:23:00,77.8,67.6,30.26,SW,233,4.0,6.0,71,0.00,,,0.97,WeatherCatV1.15B25,2013-07-06 18:23:00,
2013-07-06 14:28:00,77.8,67.6,30.26,SSE,162,0.0,5.0,71,0.00,,,0.97,WeatherCatV1.15B25,2013-07-06 18:28:00,
2013-07-06 14:33:00,77.8,68.0,30.26,NE,34,0.0,3.0,72,0.00,,,0.97,WeatherCatV1.15B25,2013-07-06 18:33:00,
2013-07-06 14:38:00,77.9,67.7,30.26,WSW,247,1.0,6.0,71,0.00,,,0.97,WeatherCatV1.15B25,2013-07-06 18:38:00,
2013-07-06 14:43:00,77.8,68.8,30.26,NE,46,0.0,2.0,74,0.00,,,0.97,WeatherCatV1.15B25,2013-07-06 18:43:00,
2013-07-06 14:48:00,77.8,68.0,30.26,WSW,238,2.0,6.0,72,0.00,,,0.97,WeatherCatV1.15B25,2013-07-06 18:48:00,
2013-07-06 14:58:00,77.7,68.7,30.25,WSW,258,3.0,3.0,74,0.00,,,0.97,WeatherCatV1.15B25,2013-07-06 18:58:00,
2013-07-06 15:08:00,78.6,68.0,30.25,NW,307,3.0,12.0,70,0.00,,,0.97,WeatherCatV1.15B25,2013-07-06 19:08:00,
2013-07-06 15:13:00,78.6,68.4,30.25,West,269,4.0,6.0,71,0.00,,,0.97,WeatherCatV1.15B25,2013-07-06 19:13:00,
2013-07-06 15:23:00,78.2,67.6,30.25,South,188,1.0,4.0,70,0.00,,,0.97,WeatherCatV1.15B25,2013-07-06 19:23:00,
2013-07-06 15:38:00,78.3,68.9,30.24,SSE,163,2.0,2.0,73,0.00,,,0.97,WeatherCatV1.15B25,2013-07-06 19:38:00,
2013-07-06 15:48:00,78.4,67.8,30.24,West,277,8.0,10.0,70,0.00,,,0.97,WeatherCatV1.15B25,2013-07-06 19:48:00,
2013-07-06 15:53:00,78.0,67.4,30.24,WNW,294,2.0,6.0,70,0.00,,,0.97,WeatherCatV1.15B25,2013-07-06 19:53:00,
2013-07-06 15:58:00,77.8,67.6,30.24,WNW,283,1.0,1.0,71,0.00,,,0.97,WeatherCatV1.15B25,2013-07-06 19:58:00,
2013-07-06 16:08:00,78.9,67.8,30.23,WNW,291,0.0,10.0,69,0.00,,,0.97,WeatherCatV1.15B25,2013-07-06 20:08:00,
2013-07-06 16:13:00,79.1,67.6,30.23,West,275,3.0,10.0,68,0.00,,,0.97,WeatherCatV1.15B25,2013-07-06 20:13:00,
2013-07-06 16:23:00,79.4,67.9,30.22,WSW,255,2.0,4.0,68,0.00,,,0.97,WeatherCatV1.15B25,2013-07-06 20:23:00,
2013-07-06 16:38:00,80.2,67.8,30.22,WSW,248,7.0,8.0,66,0.00,,,0.97,WeatherCatV1.15B25,2013-07-06 20:38:00,
2013-07-06 16:43:00,79.6,66.8,30.22,NW,304,6.0,8.0,65,0.00,,,0.97,WeatherCatV1.15B25,2013-07-06 20:43:00,
2013-07-06 16:48:00,79.2,66.4,30.22,NNW,331,2.0,6.0,65,0.00,,,0.97,WeatherCatV1.15B25,2013-07-06 20:48:00,
2013-07-06 16:58:00,77.7,67.5,30.24,SSE,161,1.0,6.0,71,0.00,,,0.97,WeatherCatV1.15B25,2013-07-06 20:58:00,
2013-07-06 17:08:00,73.9,68.7,30.25,NW,305,1.0,6.0,84,0.28,,,1.03,WeatherCatV1.15B25,2013-07-06 21:08:00,
2013-07-06 17:13:00,72.4,68.6,30.25,WNW,296,3.0,10.0,88,0.08,,,1.03,WeatherCatV1.15B25,2013-07-06 21:13:00,
2013-07-06 17:43:00,71.3,69.2,30.24,WNW,298,1.0,2.0,93,0.00,,,1.04,WeatherCatV1.15B25,2013-07-06 21:43:00,
2013-07-06 17:53:00,71.5,69.4,30.23,WNW,286,0.0,2.0,93,0.00,,,1.04,WeatherCatV1.15B25,2013-07-06 21:53:00,
2013-07-06 17:58:00,71.4,68.3,30.24,SW,217,0.0,7.0,90,0.00,,,1.04,WeatherCatV1.15B25,2013-07-06 21:58:00,
2013-07-06 18:08:00,71.4,68.6,30.24,WNW,293,2.0,5.0,91,0.00,,,1.04,WeatherCatV1.15B25,2013-07-06 22:08:00,
2013-07-06 18:13:00,71.3,68.5,30.24,WNW,288,1.0,3.0,91,0.00,,,1.04,WeatherCatV1.15B25,2013-07-06 22:13:00,
2013-07-06 18:18:00,71.3,68.2,30.24,WNW,282,1.0,3.0,90,0.00,,,1.04,WeatherCatV1.15B25,2013-07-06 22:18:00,
2013-07-06 18:28:00,71.4,68.3,30.24,WNW,299,1.0,3.0,90,0.00,,,1.04,WeatherCatV1.15B25,2013-07-06 22:28:00,
2013-07-06 18:38:00,71.3,68.8,30.23,WNW,283,0.0,0.0,92,0.00,,,1.04,WeatherCatV1.15B25,2013-07-06 22:38:00,
2013-07-06 18:43:00,71.2,68.8,30.23,WNW,283,0.0,0.0,92,0.00,,,1.04,WeatherCatV1.15B25,2013-07-06 22:43:00,
2013-07-06 18:48:00,71.0,68.6,30.23,WNW,283,0.0,0.0,92,0.00,,,1.04,WeatherCatV1.15B25,2013-07-06 22:48:00,
2013-07-06 18:58:00,70.7,68.6,30.24,WNW,284,1.0,1.0,93,0.00,,,1.04,WeatherCatV1.15B25,2013-07-06 22:58:00,
2013-07-06 19:08:00,70.7,68.6,30.24,NW,305,0.0,2.0,93,0.00,,,1.04,WeatherCatV1.15B25,2013-07-06 23:08:00,
2013-07-06 19:13:00,70.7,68.6,30.24,ENE,65,0.0,2.0,93,0.00,,,1.04,WeatherCatV1.15B25,2013-07-06 23:13:00,
2013-07-06 19:18:00,70.7,68.6,30.25,North,11,1.0,1.0,93,0.00,,,1.04,WeatherCatV1.15B25,2013-07-06 23:18:00,
2013-07-06 19:23:00,70.8,68.4,30.25,SE,133,0.0,0.0,92,0.00,,,1.04,WeatherCatV1.15B25,2013-07-06 23:23:00,
2013-07-06 19:28:00,71.0,68.6,30.25,East,82,0.0,0.0,92,0.00,,,1.04,WeatherCatV1.15B25,2013-07-06 23:28:00,
2013-07-06 19:33:00,71.0,68.6,30.25,West,281,1.0,4.0,92,0.00,,,1.04,WeatherCatV1.15B25,2013-07-06 23:33:00,
2013-07-06 19:43:00,71.3,68.5,30.25,NE,52,0.0,3.0,91,0.00,,,1.04,WeatherCatV1.15B25,2013-07-06 23:43:00,
2013-07-06 19:48:00,71.3,68.2,30.25,North,355,0.0,3.0,90,0.00,,,1.04,WeatherCatV1.15B25,2013-07-06 23:48:00,
2013-07-06 19:58:00,71.4,68.0,30.25,NW,326,0.0,1.0,89,0.00,,,1.04,WeatherCatV1.15B25,2013-07-06 23:58:00,
2013-07-06 20:03:00,71.4,68.3,30.25,North,0,0.0,1.0,90,0.00,,,1.04,WeatherCatV1.15B25,2013-07-07 00:03:00,
2013-07-06 20:08:00,71.3,67.9,30.25,NW,318,0.0,0.0,89,0.00,,,1.04,WeatherCatV1.15B25,2013-07-07 00:08:00,
2013-07-06 20:18:00,71.3,68.5,30.25,NW,304,1.0,2.0,91,0.00,,,1.04,WeatherCatV1.15B25,2013-07-07 00:18:00,
2013-07-06 20:23:00,71.2,68.4,30.25,NW,304,0.0,1.0,91,0.00,,,1.04,WeatherCatV1.15B25,2013-07-07 00:23:00,
2013-07-06 20:28:00,71.1,68.7,30.25,NE,36,0.0,3.0,92,0.00,,,1.04,WeatherCatV1.15B25,2013-07-07 00:28:00,
2013-07-06 20:33:00,70.9,68.5,30.25,NNE,28,2.0,2.0,92,0.00,,,1.04,WeatherCatV1.15B25,2013-07-07 00:33:00,
2013-07-06 20:58:00,70.2,67.8,30.25,NE,40,0.0,0.0,92,0.00,,,1.04,WeatherCatV1.15B25,2013-07-07 00:58:00,
2013-07-06 21:03:00,70.1,68.0,30.25,ENE,60,0.0,3.0,93,0.00,,,1.04,WeatherCatV1.15B25,2013-07-07 01:03:00,
2013-07-06 21:08:00,70.1,68.0,30.25,NW,314,0.0,1.0,93,0.00,,,1.04,WeatherCatV1.15B25,2013-07-07 01:08:00,
2013-07-06 21:13:00,69.9,68.1,30.25,NW,314,0.0,0.0,94,0.00,,,1.05,WeatherCatV1.15B25,2013-07-07 01:13:00,
2013-07-06 21:23:00,69.6,67.8,30.25,NW,314,0.0,0.0,94,0.00,,,1.05,WeatherCatV1.15B25,2013-07-07 01:23:00,
2013-07-06 21:28:00,69.5,68.0,30.25,NW,314,0.0,0.0,95,0.00,,,1.05,WeatherCatV1.15B25,2013-07-07 01:28:00,
2013-07-06 21:33:00,69.3,67.8,30.26,NW,321,0.0,1.0,95,0.00,,,1.05,WeatherCatV1.15B25,2013-07-07 01:33:00,
2013-07-06 21:38:00,69.1,67.3,30.26,WNW,283,1.0,1.0,94,0.00,,,1.05,WeatherCatV1.15B25,2013-07-07 01:38:00,
2013-07-06 21:48:00,68.9,67.4,30.26,WNW,286,1.0,1.0,95,0.00,,,1.05,WeatherCatV1.15B25,2013-07-07 01:48:00,
2013-07-06 21:53:00,68.7,67.2,30.26,North,5,0.0,0.0,95,0.00,,,1.05,WeatherCatV1.15B25,2013-07-07 01:53:00,
2013-07-06 21:58:00,68.6,67.1,30.26,North,5,0.0,0.0,95,0.00,,,1.05,WeatherCatV1.15B25,2013-07-07 01:58:00,
2013-07-06 22:03:00,68.5,67.0,30.26,WNW,293,0.0,0.0,95,0.00,,,1.05,WeatherCatV1.15B25,2013-07-07 02:03:00,
2013-07-06 22:08:00,68.4,67.2,30.26,WNW,293,0.0,0.0,96,0.00,,,1.05,WeatherCatV1.15B25,2013-07-07 02:08:00,
2013-07-06 22:13:00,68.3,67.1,30.26,WNW,293,0.0,0.0,96,0.00,,,1.05,WeatherCatV1.15B25,2013-07-07 02:13:00,
2013-07-06 22:18:00,68.3,67.1,30.27,WNW,293,0.0,0.0,96,0.00,,,1.05,WeatherCatV1.15B25,2013-07-07 02:18:00,
2013-07-06 22:23:00,68.3,67.1,30.27,WNW,298,0.0,0.0,96,0.00,,,1.05,WeatherCatV1.15B25,2013-07-07 02:23:00,
2013-07-06 22:33:00,68.4,67.2,30.27,NNE,22,0.0,0.0,96,0.00,,,1.05,WeatherCatV1.15B25,2013-07-07 02:33:00,
2013-07-06 22:43:00,68.5,67.3,30.27,NNE,22,0.0,1.0,96,0.00,,,1.05,WeatherCatV1.15B25,2013-07-07 02:43:00,
2013-07-06 22:48:00,68.6,67.4,30.27,ESE,106,0.0,1.0,96,0.00,,,1.05,WeatherCatV1.15B25,2013-07-07 02:48:00,
2013-07-06 23:08:00,68.6,67.4,30.27,NE,34,0.0,0.0,96,0.13,,,1.22,WeatherCatV1.15B25,2013-07-07 03:08:00,
2013-07-06 23:28:00,68.4,67.5,30.27,NW,324,0.0,1.0,97,0.00,,,1.23,WeatherCatV1.15B25,2013-07-07 03:28:00,
2013-07-06 23:33:00,68.4,67.5,30.27,NNE,16,0.0,1.0,97,0.00,,,1.23,WeatherCatV1.15B25,2013-07-07 03:33:00,
2013-07-06 23:53:00,68.6,67.7,30.28,WNW,283,0.0,2.0,97,0.00,,,1.23,WeatherCatV1.15B25,2013-07-07 03:53:00,
2013-07-06 23:58:00,68.6,67.7,30.28,WNW,294,1.0,2.0,97,0.00,,,1.23,WeatherCatV1.15B25,2013-07-07 03:58:00,